Time;durP1;ratioP1;P1;durP2;ratioP2;P2;SDS_P1;SDS_P2;PMS_P1;PMS_P2;Temp;Humidity;BMP_temperature;BMP_pressure;BME280_temperature;BME280_humidity;BME280_pressure;Samples;Min_cycle;Max_cycle;Signal;HPM_P1;HPM_P2
2022/05/05 00:01:43;;;;;;;19.60;13.70;;;;;;;16.17;66.93;100073.72;4987093;28;20075;-80
2022/05/05 00:04:10;;;;;;;23.73;13.85;;;;;;;16.15;67.02;100078.41;4986892;28;20528;-81
2022/05/05 00:06:37;;;;;;;24.02;13.48;;;;;;;16.16;67.08;100072.06;4989663;28;20062;-81
2022/05/05 00:09:04;;;;;;;20.75;13.48;;;;;;;16.15;67.17;100074.91;4965827;28;20405;-81
2022/05/05 00:14:31;;;;;;;21.85;15.00;;;;;;;16.14;67.18;100082.09;4967496;28;20046;-81
2022/05/05 00:17:03;;;;;;;22.10;14.38;;;;;;;16.11;67.44;100073.56;4992714;28;20134;-81
2022/05/05 00:19:31;;;;;;;17.80;13.10;;;;;;;16.09;67.17;100078.25;4985386;28;20044;-81
2022/05/05 00:21:58;;;;;;;20.02;14.23;;;;;;;16.09;67.20;100073.72;4954456;28;20126;-81
2022/05/05 00:24:25;;;;;;;21.25;13.65;;;;;;;16.09;67.22;100078.25;4986338;28;20045;-81
2022/05/05 00:26:54;;;;;;;23.05;13.95;;;;;;;16.05;67.40;100069.69;4982224;28;20053;-81
2022/05/05 00:29:21;;;;;;;21.40;14.13;;;;;;;16.06;67.37;100071.38;4983426;28;20042;-81
2022/05/05 00:31:48;;;;;;;21.30;14.07;;;;;;;16.06;67.43;100071.38;4987425;28;20433;-81
2022/05/05 00:34:15;;;;;;;19.95;14.38;;;;;;;16.03;67.49;100077.91;4952100;28;20101;-81
2022/05/05 00:36:42;;;;;;;19.17;13.88;;;;;;;16.04;67.38;100076.06;4984339;28;20045;-81
2022/05/05 00:39:12;;;;;;;22.42;14.38;;;;;;;16.02;67.44;100080.75;4987928;28;20058;-81
2022/05/05 00:41:42;;;;;;;21.13;13.88;;;;;;;16.01;67.34;100076.41;4977302;28;20537;-81
2022/05/05 00:44:10;;;;;;;18.80;13.90;;;;;;;16.00;67.30;100075.56;4967985;28;20061;-81
2022/05/05 00:46:37;;;;;;;20.45;13.20;;;;;;;15.98;67.30;100079.41;4963932;28;20042;-81
2022/05/05 00:49:05;;;;;;;20.92;13.40;;;;;;;15.99;67.42;100073.03;4987250;28;20517;-81
2022/05/05 00:51:32;;;;;;;20.90;14.20;;;;;;;15.97;67.50;100083.06;4984631;28;20051;-83
2022/05/05 00:53:59;;;;;;;20.83;14.18;;;;;;;15.98;67.43;100080.25;4982769;28;20047;-83
2022/05/05 00:56:28;;;;;;;20.65;13.88;;;;;;;15.95;67.52;100074.34;4967455;28;20050;-82
2022/05/05 00:58:56;;;;;;;19.25;13.25;;;;;;;15.96;67.72;100073.38;4984784;28;20046;-83
2022/05/05 01:01:31;;;;;;;21.48;14.00;;;;;;;15.95;67.62;100072.53;4983554;28;20069;-83
2022/05/05 01:04:00;;;;;;;23.63;14.25;;;;;;;15.90;67.79;100077.56;4980425;28;20046;-83
2022/05/05 01:06:28;;;;;;;25.45;15.18;;;;;;;15.89;67.58;100070.50;4981044;28;20493;-83
2022/05/05 01:08:55;;;;;;;20.17;14.18;;;;;;;15.89;67.77;100073.19;4982237;28;20074;-82
2022/05/05 01:11:22;;;;;;;21.00;14.43;;;;;;;15.93;67.77;100077.22;4986498;28;20078;-83
2022/05/05 01:13:48;;;;;;;20.73;15.00;;;;;;;15.95;67.85;100075.22;4983668;28;20518;-83
2022/05/05 01:16:16;;;;;;;21.45;14.80;;;;;;;15.96;67.91;100073.38;4982722;28;20050;-83
2022/05/05 01:18:43;;;;;;;25.17;16.40;;;;;;;15.93;68.17;100071.03;4984524;28;20481;-83
2022/05/05 01:21:10;;;;;;;25.63;14.05;;;;;;;15.91;68.12;100068.50;4986076;28;20038;-83
2022/05/05 01:23:38;;;;;;;25.13;14.85;;;;;;;15.88;68.16;100068.84;4949119;28;20046;-84
2022/05/05 01:28:52;;;;;;;22.48;14.95;;;;;;;15.92;68.26;100082.72;4982685;28;20054;-83
2022/05/05 01:31:19;;;;;;;23.75;15.15;;;;;;;15.93;68.11;100079.91;4948627;28;20155;-81
2022/05/05 01:33:46;;;;;;;21.83;14.15;;;;;;;15.95;68.23;100082.38;4982795;28;20054;-80
2022/05/05 01:36:13;;;;;;;27.70;16.30;;;;;;;15.95;68.17;100085.06;4971867;28;20038;-82
2022/05/05 01:38:41;;;;;;;24.65;15.45;;;;;;;15.95;68.33;100085.94;4987356;28;20041;-81
2022/05/05 01:41:10;;;;;;;25.23;16.20;;;;;;;15.94;68.37;100091.44;4987836;28;20112;-81
2022/05/05 01:43:37;;;;;;;28.95;16.52;;;;;;;15.94;68.29;100094.94;4988205;28;20050;-81
2022/05/05 01:46:05;;;;;;;29.05;17.85;;;;;;;15.95;68.32;100093.09;4985311;28;20137;-82
2022/05/05 01:48:33;;;;;;;29.48;18.88;;;;;;;15.94;68.30;100094.13;4970498;28;20046;-81
2022/05/05 01:51:00;;;;;;;35.70;20.67;;;;;;;15.94;68.32;100092.28;4968557;28;20529;-81
2022/05/05 01:53:27;;;;;;;35.28;21.15;;;;;;;15.94;68.41;100094.94;4990148;28;20497;-81
2022/05/05 01:55:54;;;;;;;36.75;21.88;;;;;;;15.93;68.29;100100.50;4984954;28;20053;-81
2022/05/05 01:58:21;;;;;;;35.05;21.08;;;;;;;15.93;68.26;100098.66;4972611;28;20073;-81
2022/05/05 02:00:48;;;;;;;30.50;20.48;;;;;;;15.95;68.23;100093.09;4987468;28;20061;-81
2022/05/05 02:03:14;;;;;;;37.78;20.67;;;;;;;15.94;68.14;100091.44;4987384;28;20056;-81
2022/05/05 02:05:42;;;;;;;30.17;18.38;;;;;;;15.90;68.39;100084.72;4965570;28;20047;-81
2022/05/05 02:08:10;;;;;;;26.65;17.52;;;;;;;15.86;68.33;100086.06;4988060;28;20077;-81
2022/05/05 02:10:37;;;;;;;29.92;19.75;;;;;;;15.84;68.39;100092.41;4986335;28;20056;-81
2022/05/05 02:13:05;;;;;;;28.42;18.15;;;;;;;15.84;68.52;100096.94;4983795;28;20043;-81
2022/05/05 02:15:34;;;;;;;28.33;18.33;;;;;;;15.87;68.58;100095.78;4986536;28;20049;-81
2022/05/05 02:18:09;;;;;;;30.73;18.83;;;;;;;15.86;68.67;100099.47;4987400;28;20054;-81
2022/05/05 02:20:37;;;;;;;31.08;19.15;;;;;;;15.88;68.42;100100.97;4966465;28;20555;-81
2022/05/05 02:23:04;;;;;;;30.80;20.38;;;;;;;15.88;68.42;100097.47;5002501;28;20046;-81
2022/05/05 02:25:31;;;;;;;31.25;19.17;;;;;;;15.87;68.25;100095.78;4974029;28;20038;-81
2022/05/05 02:27:58;;;;;;;32.70;18.17;;;;;;;15.84;68.27;100084.38;4955774;28;20048;-81
2022/05/05 02:30:25;;;;;;;32.90;19.98;;;;;;;15.83;68.13;100087.25;4985384;28;20646;-81
2022/05/05 02:32:53;;;;;;;33.30;19.23;;;;;;;15.81;68.27;100083.88;4971132;28;20219;-81
2022/05/05 02:35:20;;;;;;;30.38;19.15;;;;;;;15.81;68.26;100095.44;4989163;28;20046;-81
2022/05/05 02:40:32;;;;;;;31.58;19.75;;;;;;;15.78;68.37;100089.56;4998869;28;20382;-81
2022/05/05 02:43:00;;;;;;;32.80;19.80;;;;;;;15.76;68.58;100089.72;4987623;28;20052;-81
2022/05/05 02:45:27;;;;;;;29.08;17.65;;;;;;;15.77;68.25;100091.41;4984862;28;20046;-81
2022/05/05 02:47:54;;;;;;;32.47;19.25;;;;;;;15.76;68.43;100092.41;4938383;28;20057;-81
2022/05/05 02:50:21;;;;;;;31.17;19.65;;;;;;;15.76;68.24;100092.41;4987840;28;20417;-81
2022/05/05 02:52:48;;;;;;;31.67;19.63;;;;;;;15.75;68.48;100084.56;4986978;28;20077;-81
2022/05/05 02:55:14;;;;;;;38.85;20.10;;;;;;;15.76;68.32;100088.88;4988564;28;20050;-81
2022/05/05 02:57:41;;;;;;;30.63;20.15;;;;;;;15.76;68.27;100088.88;4984011;28;20520;-81
2022/05/05 03:00:11;;;;;;;39.03;19.33;;;;;;;15.72;68.20;100092.88;4974285;28;20046;-81
2022/05/05 03:02:39;;;;;;;29.83;18.98;;;;;;;15.74;68.42;100097.06;4984374;28;20042;-81
2022/05/05 03:05:06;;;;;;;35.25;21.13;;;;;;;15.72;68.42;100095.56;4955887;28;20048;-81
2022/05/05 03:07:34;;;;;;;35.80;21.52;;;;;;;15.73;68.11;100091.91;4967943;28;20038;-81
2022/05/05 03:10:01;;;;;;;31.73;20.73;;;;;;;15.72;68.31;100093.75;4986247;28;20042;-81
2022/05/05 03:12:28;;;;;;;33.95;20.63;;;;;;;15.70;68.21;100097.56;4982125;28;20049;-81
2022/05/05 03:14:55;;;;;;;36.97;21.55;;;;;;;15.67;68.05;100103.22;4972481;28;20489;-81
2022/05/05 03:17:23;;;;;;;36.67;21.42;;;;;;;15.64;68.09;100105.19;4980576;28;20544;-80
2022/05/05 03:19:51;;;;;;;33.05;19.27;;;;;;;15.61;68.33;100104.69;4984121;28;20138;-81
2022/05/05 03:22:18;;;;;;;30.27;19.45;;;;;;;15.59;68.35;100101.34;4984663;28;20073;-78
2022/05/05 03:24:46;;;;;;;30.00;19.45;;;;;;;15.60;68.38;100103.03;4989170;28;21645;-78
2022/05/05 03:27:12;;;;;;;33.88;19.38;;;;;;;15.62;68.12;100101.00;4944950;28;20576;-78
2022/05/05 03:29:39;;;;;;;29.55;17.58;;;;;;;15.62;67.77;100104.56;4983630;28;20077;-78
2022/05/05 03:32:06;;;;;;;25.45;16.20;;;;;;;15.61;67.86;100104.69;4954012;28;20034;-78
2022/05/05 03:34:33;;;;;;;32.80;18.13;;;;;;;15.60;67.91;100106.53;4959199;28;20041;-78
2022/05/05 03:37:00;;;;;;;29.13;17.98;;;;;;;15.58;67.83;100100.50;4981710;28;20050;-78
2022/05/05 03:39:27;;;;;;;35.90;20.30;;;;;;;15.55;67.95;100100.84;4984929;28;20382;-78
2022/05/05 03:41:54;;;;;;;32.20;18.38;;;;;;;15.55;67.70;100102.69;4953120;28;20453;-78
2022/05/05 03:44:21;;;;;;;32.35;19.23;;;;;;;15.51;67.76;100114.69;4969404;28;20053;-78
2022/05/05 03:46:48;;;;;;;32.10;19.52;;;;;;;15.51;68.16;100107.50;4966010;28;20051;-78
2022/05/05 03:49:16;;;;;;;35.38;21.05;;;;;;;15.53;67.89;100113.53;4983590;28;20046;-78
2022/05/05 03:51:43;;;;;;;38.03;22.50;;;;;;;15.52;68.12;100116.34;4982696;28;20046;-78
2022/05/05 03:54:10;;;;;;;35.63;21.17;;;;;;;15.54;68.15;100128.59;4981478;28;20070;-79
2022/05/05 03:56:37;;;;;;;36.20;22.70;;;;;;;15.53;68.40;100123.41;4980244;28;20042;-79
2022/05/05 03:59:03;;;;;;;45.67;25.40;;;;;;;15.55;68.18;100127.59;4989383;28;20125;-79
2022/05/05 04:01:35;;;;;;;36.78;23.15;;;;;;;15.51;68.50;100128.06;5002067;28;20042;-80
2022/05/05 04:04:02;;;;;;;36.15;21.23;;;;;;;15.52;68.23;100132.41;4997822;28;20042;-78
2022/05/05 04:06:29;;;;;;;35.97;21.45;;;;;;;15.51;68.22;100141.47;4988866;28;20451;-79
2022/05/05 04:08:56;;;;;;;40.33;23.27;;;;;;;15.49;68.31;100125.56;4983966;28;20050;-79
2022/05/05 04:11:24;;;;;;;38.22;23.08;;;;;;;15.47;68.70;100132.91;4988323;28;20609;-80
2022/05/05 04:13:52;;;;;;;43.35;25.02;;;;;;;15.47;68.68;100135.59;4984206;28;20046;-78
2022/05/05 04:16:19;;;;;;;42.38;25.67;;;;;;;15.48;68.70;100141.78;4947862;28;20046;-78
2022/05/05 04:18:47;;;;;;;44.67;24.45;;;;;;;15.45;68.80;100140.28;4984836;28;20061;-76
2022/05/05 04:21:13;;;;;;;44.38;24.98;;;;;;;15.45;68.81;100140.28;4950490;28;20489;-77
2022/05/05 04:23:40;;;;;;;42.25;24.88;;;;;;;15.45;69.08;100142.13;4982276;28;20055;-76
2022/05/05 04:26:10;;;;;;;42.65;24.08;;;;;;;15.42;68.79;100145.94;4980939;28;20404;-78
2022/05/05 04:28:37;;;;;;;45.63;25.90;;;;;;;15.43;68.99;100138.75;4961618;28;20077;-77
2022/05/05 04:31:04;;;;;;;50.72;25.95;;;;;;;15.44;68.88;100135.06;4986039;28;20046;-77
2022/05/05 04:33:31;;;;;;;43.83;25.30;;;;;;;15.44;68.89;100132.38;4967573;28;20573;-78
2022/05/05 04:35:58;;;;;;;36.60;21.15;;;;;;;15.42;69.03;100129.88;4988380;28;20048;-77
2022/05/05 04:38:25;;;;;;;35.80;22.10;;;;;;;15.39;69.23;100135.53;4980657;28;20124;-77
2022/05/05 04:40:51;;;;;;;40.22;22.73;;;;;;;15.40;69.10;100143.41;4987316;28;20548;-77
2022/05/05 04:43:18;;;;;;;47.78;25.55;;;;;;;15.38;69.25;100145.41;4984704;28;20132;-77
2022/05/05 04:45:45;;;;;;;40.25;24.17;;;;;;;15.39;69.05;100141.75;4968401;28;20133;-77
2022/05/05 04:48:12;;;;;;;43.60;24.85;;;;;;;15.37;69.31;100145.59;4979624;28;20380;-78
2022/05/05 04:50:38;;;;;;;46.63;24.83;;;;;;;15.37;69.36;100143.75;4967072;28;20372;-77
2022/05/05 04:53:05;;;;;;;40.25;23.63;;;;;;;15.37;69.51;100157.13;4967669;28;20042;-77
2022/05/05 04:55:32;;;;;;;42.03;23.98;;;;;;;15.34;69.58;100149.41;4970030;28;20053;-78
2022/05/05 04:57:59;;;;;;;42.13;23.52;;;;;;;15.34;69.60;100157.44;4980495;28;20042;-77
2022/05/05 05:00:26;;;;;;;44.55;23.85;;;;;;;15.34;69.39;100156.59;4964737;28;20490;-78
2022/05/05 05:02:53;;;;;;;41.95;24.55;;;;;;;15.35;69.71;100156.44;4984060;28;20061;-78
2022/05/05 05:05:20;;;;;;;47.38;25.60;;;;;;;15.37;69.43;100158.97;4964615;28;20056;-77
2022/05/05 05:07:47;;;;;;;54.17;27.20;;;;;;;15.37;69.86;100167.00;4951806;28;20047;-77
2022/05/05 05:10:14;;;;;;;41.13;24.23;;;;;;;15.38;69.89;100165.97;4975580;28;20042;-78
2022/05/05 05:12:41;;;;;;;44.92;25.95;;;;;;;15.41;69.95;100174.50;4973398;28;20042;-77
2022/05/05 05:15:08;;;;;;;48.20;26.52;;;;;;;15.42;69.83;100167.34;4984155;28;20053;-78
2022/05/05 05:17:35;;;;;;;52.45;29.00;;;;;;;15.45;70.03;100177.72;4951871;28;20054;-78
2022/05/05 05:20:03;;;;;;;51.83;28.05;;;;;;;15.46;70.09;100176.72;4955511;28;20122;-78
2022/05/05 05:22:30;;;;;;;48.70;25.50;;;;;;;15.47;69.89;100175.75;4968675;28;20038;-78
2022/05/05 05:24:56;;;;;;;53.95;28.63;;;;;;;15.48;70.00;100184.59;4982441;28;20049;-78
2022/05/05 05:27:24;;;;;;;50.53;27.80;;;;;;;15.47;70.37;100183.78;4970885;28;20568;-77
2022/05/05 05:29:51;;;;;;;54.63;28.63;;;;;;;15.50;70.16;100191.47;4987275;28;20121;-78
2022/05/05 05:32:17;;;;;;;49.78;27.15;;;;;;;15.52;70.06;100199.31;4986727;28;20058;-78
2022/05/05 05:34:44;;;;;;;49.50;28.30;;;;;;;15.51;69.79;100197.66;4970890;28;20434;-77
2022/05/05 05:37:11;;;;;;;51.95;27.85;;;;;;;15.49;69.79;100191.63;4985682;28;20049;-78
2022/05/05 05:39:38;;;;;;;51.25;27.33;;;;;;;15.50;70.04;100190.66;4969020;28;20063;-78
2022/05/05 05:42:06;;;;;;;49.95;28.63;;;;;;;15.52;70.13;100197.50;4989047;28;20053;-77
2022/05/05 05:44:33;;;;;;;53.28;28.90;;;;;;;15.53;70.10;100198.34;4989883;28;20046;-77
2022/05/05 05:47:00;;;;;;;52.47;27.88;;;;;;;15.52;70.37;100202.88;4942303;28;20046;-78
2022/05/05 05:49:27;;;;;;;55.70;28.80;;;;;;;15.53;70.20;100201.03;4968361;28;20046;-77
2022/05/05 05:51:54;;;;;;;53.38;28.50;;;;;;;15.55;69.92;100199.88;4989526;28;20050;-78
2022/05/05 05:54:21;;;;;;;53.28;28.65;;;;;;;15.57;70.33;100207.72;4970148;28;20561;-78
2022/05/05 05:56:48;;;;;;;52.88;28.50;;;;;;;15.60;70.20;100207.44;4985224;28;20051;-78
2022/05/05 05:59:15;;;;;;;48.95;27.73;;;;;;;15.63;70.13;100207.09;4954522;28;20043;-78
2022/05/05 06:04:29;;;;;;;47.45;27.42;;;;;;;15.65;69.99;100207.78;4989346;28;20042;-78
2022/05/05 06:06:55;;;;;;;48.30;26.92;;;;;;;15.69;69.64;100209.16;4987630;28;20054;-78
2022/05/05 06:09:24;;;;;;;47.80;28.23;;;;;;;15.69;69.42;100201.13;4986238;28;20054;-78
2022/05/05 06:11:50;;;;;;;53.70;27.80;;;;;;;15.71;69.35;100215.19;4990436;28;20046;-77
2022/05/05 06:14:18;;;;;;;52.70;27.55;;;;;;;15.70;69.26;100207.31;4984606;28;20047;-77
2022/05/05 06:16:45;;;;;;;50.47;28.77;;;;;;;15.71;69.83;100212.53;4972267;28;21446;-78
2022/05/05 06:19:13;;;;;;;49.38;27.40;;;;;;;15.71;70.01;100215.19;4982001;28;20043;-78
2022/05/05 06:21:40;;;;;;;49.33;27.63;;;;;;;15.73;69.98;100209.69;4988150;28;20133;-78
2022/05/05 06:24:07;;;;;;;51.00;27.75;;;;;;;15.69;69.67;100213.66;4988714;28;20049;-78
2022/05/05 06:26:35;;;;;;;51.15;28.88;;;;;;;15.67;70.25;100212.97;4983252;28;20045;-77
2022/05/05 06:29:02;;;;;;;46.30;27.40;;;;;;;15.64;70.05;100214.97;4983912;28;20046;-78
2022/05/05 06:31:29;;;;;;;54.40;28.95;;;;;;;15.67;70.02;100218.31;4983024;28;20053;-78
2022/05/05 06:33:55;;;;;;;52.65;29.08;;;;;;;15.62;70.20;100233.03;4984556;28;20054;-78
2022/05/05 06:36:23;;;;;;;51.65;27.63;;;;;;;15.60;70.30;100223.50;4985101;28;20513;-78
2022/05/05 06:38:52;;;;;;;49.45;27.33;;;;;;;15.62;70.26;100232.19;4971011;28;20047;-78
2022/05/05 06:41:20;;;;;;;43.40;25.98;;;;;;;15.67;70.46;100224.50;4953670;28;20043;-78
2022/05/05 06:43:47;;;;;;;45.45;26.38;;;;;;;15.70;70.08;100221.56;4985216;28;20050;-78
2022/05/05 06:46:13;;;;;;;48.78;26.77;;;;;;;15.70;70.66;100226.06;4988789;28;20046;-78
2022/05/05 06:48:41;;;;;;;53.03;29.13;;;;;;;15.72;70.50;100218.72;4969497;28;20069;-78
2022/05/05 06:51:07;;;;;;;42.88;25.52;;;;;;;15.69;70.23;100221.69;4982892;28;20153;-79
2022/05/05 06:53:34;;;;;;;49.13;27.58;;;;;;;15.69;70.43;100235.94;4971553;28;20520;-78
2022/05/05 06:56:01;;;;;;;52.58;27.60;;;;;;;15.71;70.46;100223.22;4985792;28;20429;-78
2022/05/05 06:58:28;;;;;;;50.95;29.70;;;;;;;15.73;70.49;100226.59;4972151;28;20813;-78
2022/05/05 07:03:40;;;;;;;48.88;27.98;;;;;;;15.68;70.85;100236.09;4968480;28;20446;-78
2022/05/05 07:06:10;;;;;;;47.97;29.50;;;;;;;15.66;70.78;100230.88;4983579;28;20472;-77
2022/05/05 07:11:23;;;;;;;48.28;28.13;;;;;;;15.78;70.19;100240.34;4993819;28;20100;-78
2022/05/05 07:13:49;;;;;;;50.10;28.58;;;;;;;15.83;70.15;100254.09;4984431;28;20376;-77
2022/05/05 07:16:16;;;;;;;49.03;27.73;;;;;;;15.84;70.37;100242.38;4970932;28;20042;-78
2022/05/05 07:18:43;;;;;;;49.53;28.88;;;;;;;15.88;70.41;100242.91;4969549;28;20486;-78
2022/05/05 07:21:10;;;;;;;53.45;29.95;;;;;;;15.91;70.14;100247.94;4981093;28;20054;-77
2022/05/05 07:23:37;;;;;;;54.22;32.25;;;;;;;15.93;69.70;100245.13;4968248;28;20460;-78
2022/05/05 07:26:03;;;;;;;59.47;29.60;;;;;;;15.93;69.97;100258.50;4986162;28;20046;-78
2022/05/05 07:28:30;;;;;;;52.92;31.10;;;;;;;15.94;69.81;100261.00;4949803;28;20714;-77
2022/05/05 07:30:57;;;;;;;47.45;28.63;;;;;;;15.95;69.45;100261.84;4977576;28;20056;-78
2022/05/05 07:33:25;;;;;;;51.28;30.15;;;;;;;15.95;69.82;100264.50;4968238;28;20054;-78
2022/05/05 07:35:51;;;;;;;47.30;27.88;;;;;;;15.97;69.88;100266.03;4968974;28;20057;-77
2022/05/05 07:38:18;;;;;;;50.97;29.20;;;;;;;15.98;69.98;100270.41;4967961;28;20641;-78
2022/05/05 07:40:47;;;;;;;52.08;30.67;;;;;;;16.00;70.19;100273.78;4968998;28;20038;-77
2022/05/05 07:43:14;;;;;;;55.10;32.40;;;;;;;16.02;70.18;100270.91;4985645;28;20091;-77
2022/05/05 07:45:40;;;;;;;50.13;30.38;;;;;;;16.07;69.96;100268.59;4949892;28;20042;-77
2022/05/05 07:48:08;;;;;;;52.05;30.50;;;;;;;16.06;69.86;100267.75;4984064;28;20521;-77
2022/05/05 07:50:35;;;;;;;54.35;32.20;;;;;;;16.11;69.84;100272.66;4988572;28;20125;-77
2022/05/05 07:53:03;;;;;;;49.63;30.90;;;;;;;16.15;69.89;100271.31;4988011;28;20606;-77
2022/05/05 07:55:30;;;;;;;49.17;29.83;;;;;;;16.16;69.73;100274.84;4947435;28;20082;-77
2022/05/05 07:57:57;;;;;;;48.85;28.75;;;;;;;16.18;69.79;100279.03;4971093;28;20386;-78
2022/05/05 08:00:24;;;;;;;51.63;30.90;;;;;;;16.18;69.68;100270.13;4980496;28;20042;-78
2022/05/05 08:02:52;;;;;;;54.00;31.17;;;;;;;16.20;69.55;100274.34;4999996;28;20054;-78
2022/05/05 08:05:18;;;;;;;54.03;30.88;;;;;;;16.16;69.87;100266.81;4989716;28;20059;-78
2022/05/05 08:07:48;;;;;;;58.67;33.00;;;;;;;16.22;69.54;100269.66;4968531;28;20116;-77
2022/05/05 08:10:18;;;;;;;61.63;32.05;;;;;;;16.18;69.69;100275.50;4986636;28;20042;-77
2022/05/05 08:12:45;;;;;;;58.40;31.60;;;;;;;16.25;69.33;100276.53;4980823;28;20054;-77
2022/05/05 08:15:13;;;;;;;56.80;30.90;;;;;;;16.22;69.67;100272.34;4985580;28;20490;-78
2022/05/05 08:17:40;;;;;;;61.35;32.78;;;;;;;16.23;69.53;100274.03;4967462;28;20458;-78
2022/05/05 08:20:09;;;;;;;51.60;31.45;;;;;;;16.24;69.40;100277.56;4985923;28;20057;-78
2022/05/05 08:22:36;;;;;;;55.72;33.50;;;;;;;16.28;69.26;100281.56;4978934;28;20073;-77
2022/05/05 08:30:35;;;;;;;54.83;31.17;;;;;;;16.33;69.35;100287.28;4974397;28;20402;-77
2022/05/05 08:33:02;;;;;;;55.47;30.98;;;;;;;16.32;69.75;100288.28;4970149;28;20054;-78
2022/05/05 08:35:29;;;;;;;59.30;33.35;;;;;;;16.33;69.52;100283.78;4982441;28;20117;-78
2022/05/05 08:37:56;;;;;;;59.33;34.80;;;;;;;16.44;69.31;100287.00;4982662;28;20050;-77
2022/05/05 08:40:25;;;;;;;57.92;33.42;;;;;;;16.48;69.34;100288.34;4982222;28;20089;-79
2022/05/05 08:42:52;;;;;;;60.58;34.38;;;;;;;16.43;69.43;100293.34;4988915;28;20096;-77
2022/05/05 08:45:21;;;;;;;61.28;35.28;;;;;;;16.50;69.13;100289.03;4983274;28;20053;-78
2022/05/05 08:47:53;;;;;;;60.50;35.33;;;;;;;16.43;68.93;100290.66;4963366;28;20055;-78
2022/05/05 08:50:21;;;;;;;65.10;36.72;;;;;;;16.46;68.94;100306.44;4981671;28;20049;-78
2022/05/05 08:52:49;;;;;;;58.65;34.55;;;;;;;16.34;69.38;100296.19;4969553;28;20042;-78
2022/05/05 08:55:17;;;;;;;56.08;33.45;;;;;;;16.38;69.03;100290.31;4979051;28;20045;-78
2022/05/05 08:57:45;;;;;;;63.42;36.55;;;;;;;16.30;69.11;100305.53;4998345;28;20054;-77
2022/05/05 09:00:14;;;;;;;63.13;37.22;;;;;;;16.04;69.55;100293.88;4981968;28;20610;-78
2022/05/05 09:02:42;;;;;;;57.75;35.45;;;;;;;15.98;70.06;100307.91;4952587;28;20043;-78
2022/05/05 09:05:10;;;;;;;61.70;36.35;;;;;;;15.98;70.37;100307.91;4986546;28;20038;-78
2022/05/05 09:07:50;;;;;;;61.65;36.58;;;;;;;16.07;69.98;100298.06;4968683;28;20049;-78
2022/05/05 09:10:18;;;;;;;59.13;34.15;;;;;;;16.16;70.14;100297.13;4995039;28;20399;-78
2022/05/05 09:13:01;;;;;;;62.17;35.67;;;;;;;16.11;70.17;100299.44;5000857;28;20108;-77
2022/05/05 09:15:35;;;;;;;60.60;34.42;;;;;;;16.10;69.54;100295.06;4919491;28;20077;-78
2022/05/05 09:18:28;;;;;;;58.05;33.92;;;;;;;16.14;69.32;100292.91;4979587;28;20071;-78
2022/05/05 09:20:57;;;;;;;55.30;33.80;;;;;;;16.20;69.86;100298.44;4935293;28;20410;-77
2022/05/05 09:24:34;;;;;;;58.20;34.22;;;;;;;16.40;69.37;100292.84;4966555;28;20498;-78
2022/05/05 09:26:28;;;;;;;52.08;30.63;;;;;;;16.48;69.35;100303.59;4933255;28;20058;-78
2022/05/05 09:28:56;;;;;;;60.58;35.42;;;;;;;16.66;69.16;100308.84;4982401;28;20046;-78
2022/05/05 09:31:23;;;;;;;63.55;37.38;;;;;;;16.78;68.68;100304.03;4982797;28;20081;-77
2022/05/05 09:33:50;;;;;;;54.05;32.40;;;;;;;16.73;68.85;100317.91;4982280;28;20086;-79
2022/05/05 09:36:26;;;;;;;59.90;33.75;;;;;;;16.77;68.80;100307.72;4948729;28;20057;-78
2022/05/05 09:38:56;;;;;;;59.20;35.90;;;;;;;16.92;68.60;100314.16;4970261;28;20101;-78
2022/05/05 09:41:34;;;;;;;52.58;31.08;;;;;;;16.87;68.34;100309.28;4982237;28;20046;-78
2022/05/05 09:44:20;;;;;;;55.60;33.22;;;;;;;16.89;67.69;100309.09;4985287;28;20465;-79
2022/05/05 09:46:48;;;;;;;62.28;35.40;;;;;;;16.80;68.13;100310.94;4948677;28;20063;-78
2022/05/05 09:49:19;;;;;;;60.00;36.58;;;;;;;16.95;67.64;100311.13;4986600;28;20046;-78
2022/05/05 09:57:45;;;;;;;62.38;36.20;;;;;;;16.86;68.15;100314.78;4903054;28;20060;-78
2022/05/05 10:05:42;;;;;;;55.28;33.70;;;;;;;17.12;68.22;100310.13;4951822;28;20053;-77
2022/05/05 10:08:09;;;;;;;66.88;36.17;;;;;;;17.17;67.37;100312.31;4968546;28;20149;-78
2022/05/05 10:10:37;;;;;;;55.90;34.92;;;;;;;17.15;66.91;100314.34;4969176;28;20374;-78
2022/05/05 10:13:05;;;;;;;60.13;36.35;;;;;;;17.21;66.86;100320.88;4987791;28;20045;-78
2022/05/05 10:15:33;;;;;;;76.07;39.38;;;;;;;17.19;66.87;100318.34;4972434;28;20483;-78
2022/05/05 10:18:20;;;;;;;61.35;34.90;;;;;;;17.08;67.65;100313.31;4958378;28;20516;-78
2022/05/05 10:20:46;;;;;;;64.18;35.28;;;;;;;17.07;67.31;100317.84;4974303;28;20046;-78
2022/05/05 10:23:30;;;;;;;65.18;38.72;;;;;;;17.13;66.43;100319.84;4985398;28;20046;-78
2022/05/05 10:25:58;;;;;;;63.50;36.10;;;;;;;17.07;67.63;100311.63;4947485;28;20037;-78
2022/05/05 10:28:41;;;;;;;60.78;36.00;;;;;;;16.89;68.20;100315.31;4984460;28;20125;-78
2022/05/05 10:31:31;;;;;;;67.90;40.45;;;;;;;16.97;68.29;100319.84;4938752;28;20111;-78
2022/05/05 10:34:08;;;;;;;59.75;36.03;;;;;;;16.98;68.11;100324.19;4949530;28;20513;-77
2022/05/05 10:36:36;;;;;;;65.50;37.53;;;;;;;17.10;68.26;100317.50;4960348;28;20047;-77
2022/05/05 10:39:22;;;;;;;66.60;37.47;;;;;;;17.06;67.92;100318.00;4984056;28;20493;-78
2022/05/05 10:41:51;;;;;;;62.85;36.38;;;;;;;17.18;67.90;100313.16;5000399;28;20050;-77
2022/05/05 10:44:20;;;;;;;60.88;35.97;;;;;;;17.13;68.10;100313.66;4968546;28;20584;-78
2022/05/05 10:47:03;;;;;;;59.28;35.10;;;;;;;17.17;67.44;100314.16;4983035;28;20043;-78
2022/05/05 10:49:42;;;;;;;59.63;35.73;;;;;;;17.08;66.87;100316.00;4974207;28;20042;-78
2022/05/05 10:52:11;;;;;;;61.55;37.08;;;;;;;17.17;67.72;100316.84;4998194;28;20046;-78
2022/05/05 10:54:45;;;;;;;64.47;37.53;;;;;;;17.20;67.35;100316.50;4988070;28;20100;-78
2022/05/05 10:57:24;;;;;;;64.65;39.63;;;;;;;17.28;67.40;100313.84;4942980;28;20054;-78
2022/05/05 11:00:18;;;;;;;70.47;38.83;;;;;;;17.29;67.75;100316.34;4954512;28;20189;-78
2022/05/05 11:02:58;;;;;;;60.65;36.83;;;;;;;17.30;66.63;100311.81;4950208;28;20801;-78
2022/05/05 11:05:29;;;;;;;66.63;37.80;;;;;;;17.43;66.74;100309.47;4996745;28;20043;-78
2022/05/05 11:08:08;;;;;;;60.72;36.05;;;;;;;17.38;66.04;100319.88;4952200;28;20461;-78
2022/05/05 11:10:40;;;;;;;64.07;39.65;;;;;;;17.40;66.05;100312.47;4990780;28;20505;-78
2022/05/05 11:13:08;;;;;;;57.20;35.58;;;;;;;17.48;66.25;100311.66;4965491;28;20035;-77
2022/05/05 11:23:57;;;;;;;61.53;37.25;;;;;;;17.64;65.53;100310.78;4997174;28;20038;-78
2022/05/05 11:26:25;;;;;;;65.63;38.35;;;;;;;17.64;65.30;100316.16;4987848;28;20053;-77
2022/05/05 11:28:58;;;;;;;62.53;36.00;;;;;;;17.65;65.56;100315.97;4960115;28;20093;-78
2022/05/05 11:31:28;;;;;;;61.33;35.63;;;;;;;17.68;65.37;100322.84;4985269;28;20038;-78
2022/05/05 11:34:00;;;;;;;53.15;31.65;;;;;;;17.74;65.29;100319.50;4951569;28;20694;-78
2022/05/05 11:36:34;;;;;;;;;;;;;;;17.60;65.40;100310.28;4968475;28;20073;-78
2022/05/05 11:39:02;;;;;;;55.85;32.08;;;;;;;17.71;65.83;100307.25;4967283;28;19929;-78
2022/05/05 11:41:29;;;;;;;62.35;35.08;;;;;;;17.78;65.68;100310.94;4969464;28;20046;-78
2022/05/05 11:44:14;;;;;;;52.95;30.52;;;;;;;17.79;66.01;100309.97;4969249;28;20065;-77
2022/05/05 11:46:41;;;;;;;49.78;30.30;;;;;;;17.80;66.52;100308.09;4976408;28;20054;-77
2022/05/05 11:49:09;;;;;;;47.70;30.70;;;;;;;17.77;65.55;100311.94;4968053;28;20081;-77
2022/05/05 11:51:37;;;;;;;57.28;35.65;;;;;;;17.98;65.05;100299.81;4968782;28;20045;-77
2022/05/05 11:54:08;;;;;;;51.50;31.92;;;;;;;17.90;65.69;100303.38;4985463;28;20046;-77
2022/05/05 11:56:36;;;;;;;57.92;35.50;;;;;;;17.86;65.11;100303.88;4969527;28;20069;-77
2022/05/05 12:02:13;;;;;;;48.50;31.77;;;;;;;17.74;65.42;100293.47;4910360;28;20073;-78